Lynchburg Regional Preston Glenn Field
KLYH : now visible

Airfield :











YOU CAN JOIN US ON...

 
LOGIN :

Register | Disclaimer

   EN    FR    IT 

 









Legend :    VFR   Marginal VFR   IFR   Intensive IFR   Very Intensive IFR
Visi :
Ceiling :
>= 8 km
>= 3000ft
5 to 8 km
1000 to 3000 ft
1500m to 5 km
500 to 1000 ft
800 to 1500m
200 to 500 ft
< 800m
< 200 ft
Symbols :   Thunderstorms  Fog  Heavy snow  Heavy precipitations  Wind > 20 kt






- Airport Elevation : 938 ft
- IATA code : LYH


KLYH - Lynchburg Regional Preston Glenn Field

CURRENT METAR :
  • 271554Z 03005KT 10SM CLR 07/02 A3005 RMK AO2 SLP179 T00720017

EXPIRED METARs :
  • 271454Z VRB03KT 10SM CLR 07/01 A3007 RMK AO2 SLP186 T00670006 51025
  • 271354Z 28003KT 10SM CLR 04/02 A3006 RMK AO2 SLP183 T00390017

TAF KLYH
Valid from the 27 at 12:00 until the 28 at 12:00 UTC


271138Z 2712/2812 22005KT P6SM SCT180
FM271500 35006KT P6SM OVC200
FM272000 04004KT P6SM OVC028
FM280500 04009KT 6SM -SN OVC009
FM280900 34007KT 6SM -SN BR OVC010
KZDC FIR / North America



MET'MAP, your aeronautical weather chart ! - Copyright ORBIFLY December 2007 - Disclaimer

ORBIFLY MET'MAP TEAM :

Programming & Development : Alexandra Zaïnal
Concept & original design : Baudouin d'Aumeries
Assistance for programming : Marc-Olivier Méhu
Technical & hardware support : Manuel Goepfert

Contact : metmap@orbifly.com




SOURCES & CREDITS :

   NOAA       Earth
Advisory